Aviation Digital Data Service (ADDS)

Output produced by METARs form (2119 UTC 03 August 2015)
found at http://www.aviationweather.gov/adds/metars/
 
KMIV 032054Z AUTO 18005KT 10SM CLR 32/18 A2982 RMK AO2 SLP096 T03170183 56012
KMIV 031725Z 0318/0418 23009KT P6SM SCT050 
     FM032100 23008KT P6SM FEW200 
     FM040000 19005KT P6SM SKC 
     FM040300 21003KT P6SM FEW100 BKN200 
     TEMPO 0406/0410 6SM BR 
     FM041100 23007KT P6SM FEW250 
     FM041400 26009G19KT P6SM SCT050